sensor_id;sensor_type;location;lat;lon;timestamp;temperature;humidity
20773;DHT22;10546;50.674;4.616;2022-12-22T05:24:30;11.50;99.90
20773;DHT22;10546;50.674;4.616;2022-12-22T05:26:55;11.40;99.90
20773;DHT22;10546;50.674;4.616;2022-12-22T05:29:21;11.40;99.90
20773;DHT22;10546;50.674;4.616;2022-12-22T05:31:47;11.40;99.90
20773;DHT22;10546;50.674;4.616;2022-12-22T05:34:12;11.70;99.90
20773;DHT22;10546;50.674;4.616;2022-12-22T05:36:38;11.60;99.90
20773;DHT22;10546;50.674;4.616;2022-12-22T05:39:03;11.50;99.90
20773;DHT22;10546;50.674;4.616;2022-12-22T05:41:29;11.50;99.90
20773;DHT22;10546;50.674;4.616;2022-12-22T05:43:54;11.50;99.90
20773;DHT22;10546;50.674;4.616;2022-12-22T05:46:20;11.50;99.90
20773;DHT22;10546;50.674;4.616;2022-12-22T05:48:47;11.50;99.90
20773;DHT22;10546;50.674;4.616;2022-12-22T05:51:13;11.50;99.90
20773;DHT22;10546;50.674;4.616;2022-12-22T05:53:39;11.50;99.90
20773;DHT22;10546;50.674;4.616;2022-12-22T05:56:06;11.50;99.90
20773;DHT22;10546;50.674;4.616;2022-12-22T05:58:32;11.50;99.90
20773;DHT22;10546;50.674;4.616;2022-12-22T06:00:58;11.50;99.90
20773;DHT22;10546;50.674;4.616;2022-12-22T06:03:28;11.40;99.90
20773;DHT22;10546;50.674;4.616;2022-12-22T06:05:54;11.40;99.90
20773;DHT22;10546;50.674;4.616;2022-12-22T06:08:20;11.50;99.90
20773;DHT22;10546;50.674;4.616;2022-12-22T06:10:46;11.50;99.90
20773;DHT22;10546;50.674;4.616;2022-12-22T06:13:11;11.60;99.90
20773;DHT22;10546;50.674;4.616;2022-12-22T06:15:37;11.50;99.90
20773;DHT22;10546;50.674;4.616;2022-12-22T06:18:02;11.50;99.90
20773;DHT22;10546;50.674;4.616;2022-12-22T06:20:28;11.60;99.90
20773;DHT22;10546;50.674;4.616;2022-12-22T06:22:54;11.60;99.90
20773;DHT22;10546;50.674;4.616;2022-12-22T06:25:19;11.60;99.90
20773;DHT22;10546;50.674;4.616;2022-12-22T06:27:46;11.50;99.90
20773;DHT22;10546;50.674;4.616;2022-12-22T06:30:13;11.40;99.90
20773;DHT22;10546;50.674;4.616;2022-12-22T06:32:39;11.30;99.90
20773;DHT22;10546;50.674;4.616;2022-12-22T06:35:06;11.40;99.90
20773;DHT22;10546;50.674;4.616;2022-12-22T06:37:32;11.30;99.90
20773;DHT22;10546;50.674;4.616;2022-12-22T06:40:00;11.30;99.90
20773;DHT22;10546;50.674;4.616;2022-12-22T06:42:26;11.10;99.90
20773;DHT22;10546;50.674;4.616;2022-12-22T06:45:10;11.00;99.90
20773;DHT22;10546;50.674;4.616;2022-12-22T06:47:36;11.10;99.90
20773;DHT22;10546;50.674;4.616;2022-12-22T06:50:01;11.10;99.90
20773;DHT22;10546;50.674;4.616;2022-12-22T06:52:27;11.10;99.90
20773;DHT22;10546;50.674;4.616;2022-12-22T06:54:53;11.10;99.90
20773;DHT22;10546;50.674;4.616;2022-12-22T06:57:19;11.20;99.90
20773;DHT22;10546;50.674;4.616;2022-12-22T06:59:45;11.30;99.90
20773;DHT22;10546;50.674;4.616;2022-12-22T07:02:11;11.10;99.90
20773;DHT22;10546;50.674;4.616;2022-12-22T07:04:36;11.00;99.90
20773;DHT22;10546;50.674;4.616;2022-12-22T07:07:02;11.00;99.90
20773;DHT22;10546;50.674;4.616;2022-12-22T07:09:28;11.10;99.90
20773;DHT22;10546;50.674;4.616;2022-12-22T07:11:54;11.20;99.90
20773;DHT22;10546;50.674;4.616;2022-12-22T07:14:19;11.10;99.90
20773;DHT22;10546;50.674;4.616;2022-12-22T07:16:46;11.10;99.90
20773;DHT22;10546;50.674;4.616;2022-12-22T07:19:12;11.10;99.90
20773;DHT22;10546;50.674;4.616;2022-12-22T07:21:38;11.20;99.90
20773;DHT22;10546;50.674;4.616;2022-12-22T07:24:03;11.10;99.90
20773;DHT22;10546;50.674;4.616;2022-12-22T07:26:29;11.10;99.90
20773;DHT22;10546;50.674;4.616;2022-12-22T07:28:55;11.00;99.90
20773;DHT22;10546;50.674;4.616;2022-12-22T07:31:20;11.00;99.90
20773;DHT22;10546;50.674;4.616;2022-12-22T07:33:46;11.00;99.90
20773;DHT22;10546;50.674;4.616;2022-12-22T07:36:14;10.90;99.90
20773;DHT22;10546;50.674;4.616;2022-12-22T07:38:42;10.90;99.90
20773;DHT22;10546;50.674;4.616;2022-12-22T07:41:09;10.90;99.90
20773;DHT22;10546;50.674;4.616;2022-12-22T07:43:54;11.10;99.90
20773;DHT22;10546;50.674;4.616;2022-12-22T07:46:20;11.00;99.90
20773;DHT22;10546;50.674;4.616;2022-12-22T07:48:46;11.00;99.90
20773;DHT22;10546;50.674;4.616;2022-12-22T07:51:34;11.00;99.90
20773;DHT22;10546;50.674;4.616;2022-12-22T07:54:03;10.90;99.90
20773;DHT22;10546;50.674;4.616;2022-12-22T07:56:29;10.80;99.90
20773;DHT22;10546;50.674;4.616;2022-12-22T07:58:55;10.70;99.90
20773;DHT22;10546;50.674;4.616;2022-12-22T08:01:20;10.80;99.90
20773;DHT22;10546;50.674;4.616;2022-12-22T08:03:46;10.80;99.90
20773;DHT22;10546;50.674;4.616;2022-12-22T08:06:11;10.80;99.90
20773;DHT22;10546;50.674;4.616;2022-12-22T08:08:37;10.70;99.90
20773;DHT22;10546;50.674;4.616;2022-12-22T08:11:03;10.70;99.90
20773;DHT22;10546;50.674;4.616;2022-12-22T08:13:29;10.70;99.90
20773;DHT22;10546;50.674;4.616;2022-12-22T08:15:55;10.60;99.90
20773;DHT22;10546;50.674;4.616;2022-12-22T08:18:20;10.60;99.90
20773;DHT22;10546;50.674;4.616;2022-12-22T08:20:50;10.60;99.90
20773;DHT22;10546;50.674;4.616;2022-12-22T08:23:16;10.60;99.90
20773;DHT22;10546;50.674;4.616;2022-12-22T08:25:43;10.70;99.90
20773;DHT22;10546;50.674;4.616;2022-12-22T08:28:17;10.60;99.90
20773;DHT22;10546;50.674;4.616;2022-12-22T08:30:43;10.60;99.90
20773;DHT22;10546;50.674;4.616;2022-12-22T08:33:09;10.70;99.90
20773;DHT22;10546;50.674;4.616;2022-12-22T08:35:35;10.60;99.90
20773;DHT22;10546;50.674;4.616;2022-12-22T08:38:01;10.60;99.90
20773;DHT22;10546;50.674;4.616;2022-12-22T08:40:28;10.60;99.90
20773;DHT22;10546;50.674;4.616;2022-12-22T08:43:02;10.60;99.90
20773;DHT22;10546;50.674;4.616;2022-12-22T08:45:29;10.50;99.90
20773;DHT22;10546;50.674;4.616;2022-12-22T08:47:55;10.50;99.90
20773;DHT22;10546;50.674;4.616;2022-12-22T08:50:27;10.50;99.90
20773;DHT22;10546;50.674;4.616;2022-12-22T08:53:01;10.50;99.90
20773;DHT22;10546;50.674;4.616;2022-12-22T08:55:28;10.50;99.90
20773;DHT22;10546;50.674;4.616;2022-12-22T08:57:54;10.40;99.90
20773;DHT22;10546;50.674;4.616;2022-12-22T09:00:20;10.60;99.90
20773;DHT22;10546;50.674;4.616;2022-12-22T09:02:46;10.60;99.90
20773;DHT22;10546;50.674;4.616;2022-12-22T09:05:12;10.60;99.90
20773;DHT22;10546;50.674;4.616;2022-12-22T09:07:38;10.70;99.90
20773;DHT22;10546;50.674;4.616;2022-12-22T09:10:03;10.60;99.90
20773;DHT22;10546;50.674;4.616;2022-12-22T09:12:30;10.70;99.90
20773;DHT22;10546;50.674;4.616;2022-12-22T09:14:56;10.60;99.90
20773;DHT22;10546;50.674;4.616;2022-12-22T09:17:24;10.50;99.90
20773;DHT22;10546;50.674;4.616;2022-12-22T09:19:50;10.50;99.90
20773;DHT22;10546;50.674;4.616;2022-12-22T09:22:16;10.50;99.90
20773;DHT22;10546;50.674;4.616;2022-12-22T09:24:43;10.50;99.90
20773;DHT22;10546;50.674;4.616;2022-12-22T09:27:10;10.50;99.90
20773;DHT22;10546;50.674;4.616;2022-12-22T09:29:38;10.50;99.90
20773;DHT22;10546;50.674;4.616;2022-12-22T09:32:04;10.60;99.90
20773;DHT22;10546;50.674;4.616;2022-12-22T09:34:30;10.60;99.90
20773;DHT22;10546;50.674;4.616;2022-12-22T09:36:57;10.40;99.90
20773;DHT22;10546;50.674;4.616;2022-12-22T09:39:24;10.40;99.90
20773;DHT22;10546;50.674;4.616;2022-12-22T09:41:54;10.40;99.90
20773;DHT22;10546;50.674;4.616;2022-12-22T09:44:37;10.60;99.90
20773;DHT22;10546;50.674;4.616;2022-12-22T09:47:16;10.60;99.90
20773;DHT22;10546;50.674;4.616;2022-12-22T09:49:43;10.60;99.90
20773;DHT22;10546;50.674;4.616;2022-12-22T09:52:42;10.50;99.90
20773;DHT22;10546;50.674;4.616;2022-12-22T09:55:24;10.50;99.90
20773;DHT22;10546;50.674;4.616;2022-12-22T09:57:55;10.40;99.90
20773;DHT22;10546;50.674;4.616;2022-12-22T10:00:23;10.30;99.90
20773;DHT22;10546;50.674;4.616;2022-12-22T10:03:21;10.30;99.90
20773;DHT22;10546;50.674;4.616;2022-12-22T10:06:11;10.30;99.90
20773;DHT22;10546;50.674;4.616;2022-12-22T10:08:39;10.30;99.90
20773;DHT22;10546;50.674;4.616;2022-12-22T10:11:13;10.50;99.90
20773;DHT22;10546;50.674;4.616;2022-12-22T10:13:38;10.40;99.90
20773;DHT22;10546;50.674;4.616;2022-12-22T10:16:24;10.40;99.90
20773;DHT22;10546;50.674;4.616;2022-12-22T10:21:24;10.30;99.90
20773;DHT22;10546;50.674;4.616;2022-12-22T10:23:51;10.20;99.90
20773;DHT22;10546;50.674;4.616;2022-12-22T10:26:21;10.10;99.90
20773;DHT22;10546;50.674;4.616;2022-12-22T10:28:58;9.90;99.90
20773;DHT22;10546;50.674;4.616;2022-12-22T10:31:33;9.90;99.90
20773;DHT22;10546;50.674;4.616;2022-12-22T10:34:14;10.00;99.90
20773;DHT22;10546;50.674;4.616;2022-12-22T10:36:49;10.10;99.90
20773;DHT22;10546;50.674;4.616;2022-12-22T10:39:20;10.20;99.90
20773;DHT22;10546;50.674;4.616;2022-12-22T10:41:48;10.30;99.90
20773;DHT22;10546;50.674;4.616;2022-12-22T10:46:47;10.30;99.90
20773;DHT22;10546;50.674;4.616;2022-12-22T10:49:22;10.40;99.90
20773;DHT22;10546;50.674;4.616;2022-12-22T10:52:12;10.50;99.90
20773;DHT22;10546;50.674;4.616;2022-12-22T10:54:40;10.40;99.90
20773;DHT22;10546;50.674;4.616;2022-12-22T11:00:01;10.40;99.90
20773;DHT22;10546;50.674;4.616;2022-12-22T11:05:03;10.20;99.90
20773;DHT22;10546;50.674;4.616;2022-12-22T11:07:32;10.20;99.90
20773;DHT22;10546;50.674;4.616;2022-12-22T11:09:59;10.20;99.90
20773;DHT22;10546;50.674;4.616;2022-12-22T11:12:48;10.30;99.90
20773;DHT22;10546;50.674;4.616;2022-12-22T11:21:03;10.10;99.90
20773;DHT22;10546;50.674;4.616;2022-12-22T11:24:00;10.30;99.90
20773;DHT22;10546;50.674;4.616;2022-12-22T11:26:53;10.30;99.90
20773;DHT22;10546;50.674;4.616;2022-12-22T11:35:04;10.10;99.90
20773;DHT22;10546;50.674;4.616;2022-12-22T11:37:46;10.10;99.90
20773;DHT22;10546;50.674;4.616;2022-12-22T11:43:05;10.20;99.90
20773;DHT22;10546;50.674;4.616;2022-12-22T11:46:00;10.20;99.90
20773;DHT22;10546;50.674;4.616;2022-12-22T11:51:22;9.80;99.90
20773;DHT22;10546;50.674;4.616;2022-12-22T11:56:47;9.80;99.90
20773;DHT22;10546;50.674;4.616;2022-12-22T12:07:36;10.00;99.90
20773;DHT22;10546;50.674;4.616;2022-12-22T12:10:12;10.40;99.90
20773;DHT22;10546;50.674;4.616;2022-12-22T12:12:51;10.90;99.90
20773;DHT22;10546;50.674;4.616;2022-12-22T12:15:41;11.20;99.90
20773;DHT22;10546;50.674;4.616;2022-12-22T12:18:51;11.40;99.90
20773;DHT22;10546;50.674;4.616;2022-12-22T12:21:29;11.40;99.90
20773;DHT22;10546;50.674;4.616;2022-12-22T12:26:57;11.50;99.90
20773;DHT22;10546;50.674;4.616;2022-12-22T12:29:27;11.30;99.90
20773;DHT22;10546;50.674;4.616;2022-12-22T12:32:06;11.20;99.90
20773;DHT22;10546;50.674;4.616;2022-12-22T12:34:40;11.10;99.90
20773;DHT22;10546;50.674;4.616;2022-12-22T12:37:20;11.00;99.90
20773;DHT22;10546;50.674;4.616;2022-12-22T12:42:44;11.00;99.90
20773;DHT22;10546;50.674;4.616;2022-12-22T12:50:50;10.70;99.90
20773;DHT22;10546;50.674;4.616;2022-12-22T12:53:17;10.70;99.90
20773;DHT22;10546;50.674;4.616;2022-12-22T12:55:50;10.80;99.90
20773;DHT22;10546;50.674;4.616;2022-12-22T13:01:08;10.60;99.90
20773;DHT22;10546;50.674;4.616;2022-12-22T13:03:40;10.60;99.90
20773;DHT22;10546;50.674;4.616;2022-12-22T13:06:46;10.60;99.90
20773;DHT22;10546;50.674;4.616;2022-12-22T13:11:33;10.50;99.90
20773;DHT22;10546;50.674;4.616;2022-12-22T13:14:00;10.50;99.90
20773;DHT22;10546;50.674;4.616;2022-12-22T13:16:28;10.50;99.90
20773;DHT22;10546;50.674;4.616;2022-12-22T13:18:55;10.40;99.90
20773;DHT22;10546;50.674;4.616;2022-12-22T13:21:43;10.50;99.90
20773;DHT22;10546;50.674;4.616;2022-12-22T13:24:14;10.60;99.90
20773;DHT22;10546;50.674;4.616;2022-12-22T13:26:42;10.50;99.90
20773;DHT22;10546;50.674;4.616;2022-12-22T13:37:00;10.30;99.90
20773;DHT22;10546;50.674;4.616;2022-12-22T13:39:27;10.40;99.90
20773;DHT22;10546;50.674;4.616;2022-12-22T13:41:53;10.60;99.90
20773;DHT22;10546;50.674;4.616;2022-12-22T13:44:31;10.60;99.90
20773;DHT22;10546;50.674;4.616;2022-12-22T13:47:03;10.40;99.90
20773;DHT22;10546;50.674;4.616;2022-12-22T13:49:29;10.40;99.90
20773;DHT22;10546;50.674;4.616;2022-12-22T13:51:55;10.40;99.90
20773;DHT22;10546;50.674;4.616;2022-12-22T13:54:33;10.40;99.90
20773;DHT22;10546;50.674;4.616;2022-12-22T13:57:02;10.60;99.90
20773;DHT22;10546;50.674;4.616;2022-12-22T13:59:33;10.80;99.90
20773;DHT22;10546;50.674;4.616;2022-12-22T14:02:02;10.70;99.90
20773;DHT22;10546;50.674;4.616;2022-12-22T14:04:28;10.60;99.90
20773;DHT22;10546;50.674;4.616;2022-12-22T14:06:54;10.60;99.90
20773;DHT22;10546;50.674;4.616;2022-12-22T14:09:25;10.70;99.90
20773;DHT22;10546;50.674;4.616;2022-12-22T14:11:55;10.70;99.90
20773;DHT22;10546;50.674;4.616;2022-12-22T14:14:25;10.70;99.90
20773;DHT22;10546;50.674;4.616;2022-12-22T14:16:52;10.80;99.90
20773;DHT22;10546;50.674;4.616;2022-12-22T14:19:20;10.90;99.90
20773;DHT22;10546;50.674;4.616;2022-12-22T14:22:06;10.80;99.90
20773;DHT22;10546;50.674;4.616;2022-12-22T14:24:47;10.80;99.90
20773;DHT22;10546;50.674;4.616;2022-12-22T14:27:30;10.80;99.90
20773;DHT22;10546;50.674;4.616;2022-12-22T14:29:59;10.90;99.90
20773;DHT22;10546;50.674;4.616;2022-12-22T14:32:40;10.90;99.90
20773;DHT22;10546;50.674;4.616;2022-12-22T14:35:19;11.00;99.90
20773;DHT22;10546;50.674;4.616;2022-12-22T14:37:51;11.00;99.90
20773;DHT22;10546;50.674;4.616;2022-12-22T14:40:34;11.10;99.90
20773;DHT22;10546;50.674;4.616;2022-12-22T14:43:02;11.00;99.90
20773;DHT22;10546;50.674;4.616;2022-12-22T14:45:28;10.90;99.90
20773;DHT22;10546;50.674;4.616;2022-12-22T14:47:55;10.90;99.90
20773;DHT22;10546;50.674;4.616;2022-12-22T14:50:28;10.90;99.90
20773;DHT22;10546;50.674;4.616;2022-12-22T14:52:54;11.10;99.90
20773;DHT22;10546;50.674;4.616;2022-12-22T14:58:16;11.00;99.90
20773;DHT22;10546;50.674;4.616;2022-12-22T15:00:44;11.00;99.90
20773;DHT22;10546;50.674;4.616;2022-12-22T15:03:32;11.00;99.90
20773;DHT22;10546;50.674;4.616;2022-12-22T15:06:22;11.00;99.90
20773;DHT22;10546;50.674;4.616;2022-12-22T15:08:52;11.00;99.90
20773;DHT22;10546;50.674;4.616;2022-12-22T15:11:19;11.10;99.90
20773;DHT22;10546;50.674;4.616;2022-12-22T15:13:47;11.10;99.90
20773;DHT22;10546;50.674;4.616;2022-12-22T15:16:16;11.10;99.90
20773;DHT22;10546;50.674;4.616;2022-12-22T15:18:42;11.20;99.90
20773;DHT22;10546;50.674;4.616;2022-12-22T15:21:11;11.30;99.90
20773;DHT22;10546;50.674;4.616;2022-12-22T15:23:37;11.30;99.90
20773;DHT22;10546;50.674;4.616;2022-12-22T15:26:03;11.20;99.90
20773;DHT22;10546;50.674;4.616;2022-12-22T15:28:30;11.20;99.90
20773;DHT22;10546;50.674;4.616;2022-12-22T15:30:55;11.30;99.90
20773;DHT22;10546;50.674;4.616;2022-12-22T15:33:22;11.30;99.90
20773;DHT22;10546;50.674;4.616;2022-12-22T15:35:48;11.30;99.90
20773;DHT22;10546;50.674;4.616;2022-12-22T15:38:19;11.40;99.90
20773;DHT22;10546;50.674;4.616;2022-12-22T15:40:45;11.40;99.90
20773;DHT22;10546;50.674;4.616;2022-12-22T15:43:11;11.40;99.90
20773;DHT22;10546;50.674;4.616;2022-12-22T15:45:37;11.50;99.90
20773;DHT22;10546;50.674;4.616;2022-12-22T15:48:04;11.50;99.90
20773;DHT22;10546;50.674;4.616;2022-12-22T15:50:34;11.40;99.90
20773;DHT22;10546;50.674;4.616;2022-12-22T15:53:02;11.50;99.90
20773;DHT22;10546;50.674;4.616;2022-12-22T15:55:29;11.40;99.90
20773;DHT22;10546;50.674;4.616;2022-12-22T15:57:56;11.40;99.90
20773;DHT22;10546;50.674;4.616;2022-12-22T16:00:23;11.60;99.90
20773;DHT22;10546;50.674;4.616;2022-12-22T16:02:49;11.40;99.90
20773;DHT22;10546;50.674;4.616;2022-12-22T16:05:16;11.50;99.90
20773;DHT22;10546;50.674;4.616;2022-12-22T16:07:43;11.40;99.90
20773;DHT22;10546;50.674;4.616;2022-12-22T16:10:38;11.50;99.90
20773;DHT22;10546;50.674;4.616;2022-12-22T16:13:04;11.40;99.90
20773;DHT22;10546;50.674;4.616;2022-12-22T16:15:32;11.40;99.90
20773;DHT22;10546;50.674;4.616;2022-12-22T16:18:01;11.50;99.90
20773;DHT22;10546;50.674;4.616;2022-12-22T16:20:29;11.50;99.90
20773;DHT22;10546;50.674;4.616;2022-12-22T16:22:56;11.50;99.90
20773;DHT22;10546;50.674;4.616;2022-12-22T16:25:29;11.50;99.90
20773;DHT22;10546;50.674;4.616;2022-12-22T16:27:56;11.40;99.90
20773;DHT22;10546;50.674;4.616;2022-12-22T16:30:23;11.40;99.90
20773;DHT22;10546;50.674;4.616;2022-12-22T16:32:50;11.30;99.90
20773;DHT22;10546;50.674;4.616;2022-12-22T16:35:21;11.50;99.90
20773;DHT22;10546;50.674;4.616;2022-12-22T16:37:48;11.40;99.90
20773;DHT22;10546;50.674;4.616;2022-12-22T16:40:16;11.40;99.90
20773;DHT22;10546;50.674;4.616;2022-12-22T16:43:35;11.40;99.90
20773;DHT22;10546;50.674;4.616;2022-12-22T16:45:35;11.40;99.90
20773;DHT22;10546;50.674;4.616;2022-12-22T16:48:09;11.30;99.90
20773;DHT22;10546;50.674;4.616;2022-12-22T16:50:36;11.30;99.90
20773;DHT22;10546;50.674;4.616;2022-12-22T16:53:04;11.30;99.90
20773;DHT22;10546;50.674;4.616;2022-12-22T16:55:30;11.40;99.90
20773;DHT22;10546;50.674;4.616;2022-12-22T16:57:56;11.40;99.90
20773;DHT22;10546;50.674;4.616;2022-12-22T17:00:25;11.50;99.90
20773;DHT22;10546;50.674;4.616;2022-12-22T17:02:55;11.40;99.90
20773;DHT22;10546;50.674;4.616;2022-12-22T17:05:38;11.40;99.90
20773;DHT22;10546;50.674;4.616;2022-12-22T17:08:06;11.40;99.90
20773;DHT22;10546;50.674;4.616;2022-12-22T17:10:32;11.40;99.90
20773;DHT22;10546;50.674;4.616;2022-12-22T17:12:59;11.40;99.90
20773;DHT22;10546;50.674;4.616;2022-12-22T17:15:25;11.50;99.90
20773;DHT22;10546;50.674;4.616;2022-12-22T17:17:51;11.40;99.90
20773;DHT22;10546;50.674;4.616;2022-12-22T17:20:21;11.40;99.90
20773;DHT22;10546;50.674;4.616;2022-12-22T17:22:56;11.20;99.90
20773;DHT22;10546;50.674;4.616;2022-12-22T17:25:24;11.30;99.90
20773;DHT22;10546;50.674;4.616;2022-12-22T17:27:50;11.40;99.90
20773;DHT22;10546;50.674;4.616;2022-12-22T17:30:17;11.40;99.90
20773;DHT22;10546;50.674;4.616;2022-12-22T17:32:44;11.30;99.90
20773;DHT22;10546;50.674;4.616;2022-12-22T17:35:17;11.40;99.90
20773;DHT22;10546;50.674;4.616;2022-12-22T17:37:45;11.30;99.90
20773;DHT22;10546;50.674;4.616;2022-12-22T17:40:20;11.30;99.90
20773;DHT22;10546;50.674;4.616;2022-12-22T17:42:47;11.30;99.90
20773;DHT22;10546;50.674;4.616;2022-12-22T17:45:14;11.40;99.90
20773;DHT22;10546;50.674;4.616;2022-12-22T17:47:40;11.30;99.90
20773;DHT22;10546;50.674;4.616;2022-12-22T17:50:08;11.30;99.90
20773;DHT22;10546;50.674;4.616;2022-12-22T17:52:35;11.20;99.90
20773;DHT22;10546;50.674;4.616;2022-12-22T17:55:00;11.20;99.90
20773;DHT22;10546;50.674;4.616;2022-12-22T17:57:32;11.30;99.90
20773;DHT22;10546;50.674;4.616;2022-12-22T17:59:58;11.30;99.90
20773;DHT22;10546;50.674;4.616;2022-12-22T18:02:24;11.30;99.90
20773;DHT22;10546;50.674;4.616;2022-12-22T18:04:51;11.30;99.90
20773;DHT22;10546;50.674;4.616;2022-12-22T18:07:19;11.30;99.90
20773;DHT22;10546;50.674;4.616;2022-12-22T18:09:46;11.20;99.90
20773;DHT22;10546;50.674;4.616;2022-12-22T18:12:19;11.30;99.90
20773;DHT22;10546;50.674;4.616;2022-12-22T18:14:49;11.30;99.90
20773;DHT22;10546;50.674;4.616;2022-12-22T18:17:24;11.20;99.90
20773;DHT22;10546;50.674;4.616;2022-12-22T18:19:50;11.20;99.90
20773;DHT22;10546;50.674;4.616;2022-12-22T18:22:21;11.50;99.90
20773;DHT22;10546;50.674;4.616;2022-12-22T18:24:48;11.20;99.90
20773;DHT22;10546;50.674;4.616;2022-12-22T18:27:15;11.30;99.90
20773;DHT22;10546;50.674;4.616;2022-12-22T18:29:42;11.40;99.90
20773;DHT22;10546;50.674;4.616;2022-12-22T18:32:08;11.30;99.90
20773;DHT22;10546;50.674;4.616;2022-12-22T18:34:35;11.30;99.90
20773;DHT22;10546;50.674;4.616;2022-12-22T18:37:03;11.30;99.90
20773;DHT22;10546;50.674;4.616;2022-12-22T18:39:29;11.20;99.90
20773;DHT22;10546;50.674;4.616;2022-12-22T18:41:55;11.20;99.90
20773;DHT22;10546;50.674;4.616;2022-12-22T18:44:21;11.20;99.90
20773;DHT22;10546;50.674;4.616;2022-12-22T18:46:47;11.30;99.90
20773;DHT22;10546;50.674;4.616;2022-12-22T18:49:14;11.30;99.90
20773;DHT22;10546;50.674;4.616;2022-12-22T18:51:41;11.30;99.90
20773;DHT22;10546;50.674;4.616;2022-12-22T18:54:29;11.30;99.90
20773;DHT22;10546;50.674;4.616;2022-12-22T18:57:01;11.30;99.90
20773;DHT22;10546;50.674;4.616;2022-12-22T18:59:28;11.30;99.90
20773;DHT22;10546;50.674;4.616;2022-12-22T19:04:40;11.20;99.90
20773;DHT22;10546;50.674;4.616;2022-12-22T19:07:13;11.20;99.90
20773;DHT22;10546;50.674;4.616;2022-12-22T19:09:39;11.20;99.90
20773;DHT22;10546;50.674;4.616;2022-12-22T19:12:11;11.30;99.90
20773;DHT22;10546;50.674;4.616;2022-12-22T19:14:37;11.20;99.90
20773;DHT22;10546;50.674;4.616;2022-12-22T19:17:08;11.10;99.90
20773;DHT22;10546;50.674;4.616;2022-12-22T19:19:36;11.20;99.90
20773;DHT22;10546;50.674;4.616;2022-12-22T19:22:02;11.10;99.90
20773;DHT22;10546;50.674;4.616;2022-12-22T19:24:27;11.20;99.90
20773;DHT22;10546;50.674;4.616;2022-12-22T19:26:53;11.30;99.90
20773;DHT22;10546;50.674;4.616;2022-12-22T19:29:18;11.30;99.90
20773;DHT22;10546;50.674;4.616;2022-12-22T19:31:44;11.40;99.90
20773;DHT22;10546;50.674;4.616;2022-12-22T19:34:15;11.30;99.90
20773;DHT22;10546;50.674;4.616;2022-12-22T19:36:42;11.20;99.90
20773;DHT22;10546;50.674;4.616;2022-12-22T19:39:08;11.20;99.90
20773;DHT22;10546;50.674;4.616;2022-12-22T19:41:44;11.30;99.90
20773;DHT22;10546;50.674;4.616;2022-12-22T19:44:23;11.30;99.90
20773;DHT22;10546;50.674;4.616;2022-12-22T19:46:52;11.30;99.90
20773;DHT22;10546;50.674;4.616;2022-12-22T19:49:23;11.30;99.90
20773;DHT22;10546;50.674;4.616;2022-12-22T19:51:49;11.30;99.90
20773;DHT22;10546;50.674;4.616;2022-12-22T19:54:15;11.30;99.90
20773;DHT22;10546;50.674;4.616;2022-12-22T19:56:44;11.20;99.90
20773;DHT22;10546;50.674;4.616;2022-12-22T19:59:26;11.10;99.90
20773;DHT22;10546;50.674;4.616;2022-12-22T20:01:54;11.20;99.90
20773;DHT22;10546;50.674;4.616;2022-12-22T20:04:19;11.10;99.90
20773;DHT22;10546;50.674;4.616;2022-12-22T20:06:45;10.90;99.90
20773;DHT22;10546;50.674;4.616;2022-12-22T20:09:11;10.90;99.90
20773;DHT22;10546;50.674;4.616;2022-12-22T20:11:36;10.90;99.90
20773;DHT22;10546;50.674;4.616;2022-12-22T20:14:02;11.00;99.90
20773;DHT22;10546;50.674;4.616;2022-12-22T20:16:27;11.00;99.90
20773;DHT22;10546;50.674;4.616;2022-12-22T20:18:53;11.10;99.90
20773;DHT22;10546;50.674;4.616;2022-12-22T20:21:25;10.90;99.90
20773;DHT22;10546;50.674;4.616;2022-12-22T20:23:53;11.00;99.90
20773;DHT22;10546;50.674;4.616;2022-12-22T20:26:21;11.00;99.90
20773;DHT22;10546;50.674;4.616;2022-12-22T20:28:49;11.00;99.90
20773;DHT22;10546;50.674;4.616;2022-12-22T20:31:17;11.00;99.90
20773;DHT22;10546;50.674;4.616;2022-12-22T20:33:43;11.20;99.90
20773;DHT22;10546;50.674;4.616;2022-12-22T20:38:41;11.10;99.90
20773;DHT22;10546;50.674;4.616;2022-12-22T20:41:08;11.10;99.90
20773;DHT22;10546;50.674;4.616;2022-12-22T20:43:36;11.20;99.90
20773;DHT22;10546;50.674;4.616;2022-12-22T20:46:09;11.30;99.90
20773;DHT22;10546;50.674;4.616;2022-12-22T20:48:46;11.20;99.90
20773;DHT22;10546;50.674;4.616;2022-12-22T20:51:15;11.20;99.90
20773;DHT22;10546;50.674;4.616;2022-12-22T20:53:43;11.10;99.90
20773;DHT22;10546;50.674;4.616;2022-12-22T20:56:23;11.40;99.90
20773;DHT22;10546;50.674;4.616;2022-12-22T20:58:50;11.20;99.90
20773;DHT22;10546;50.674;4.616;2022-12-22T21:01:16;11.20;99.90
20773;DHT22;10546;50.674;4.616;2022-12-22T21:03:42;11.20;99.90
20773;DHT22;10546;50.674;4.616;2022-12-22T21:06:36;11.20;99.90
20773;DHT22;10546;50.674;4.616;2022-12-22T21:09:02;11.30;99.90
20773;DHT22;10546;50.674;4.616;2022-12-22T21:11:29;11.10;99.90
20773;DHT22;10546;50.674;4.616;2022-12-22T21:13:56;11.20;99.90
20773;DHT22;10546;50.674;4.616;2022-12-22T21:16:23;11.20;99.90
20773;DHT22;10546;50.674;4.616;2022-12-22T21:18:51;11.30;99.90
20773;DHT22;10546;50.674;4.616;2022-12-22T21:21:17;11.20;99.90
20773;DHT22;10546;50.674;4.616;2022-12-22T21:23:42;11.20;99.90
20773;DHT22;10546;50.674;4.616;2022-12-22T21:26:21;11.20;99.90
20773;DHT22;10546;50.674;4.616;2022-12-22T21:28:49;11.20;99.90
20773;DHT22;10546;50.674;4.616;2022-12-22T21:31:15;11.30;99.90
20773;DHT22;10546;50.674;4.616;2022-12-22T21:33:41;11.30;99.90
20773;DHT22;10546;50.674;4.616;2022-12-22T21:36:21;11.30;99.90
20773;DHT22;10546;50.674;4.616;2022-12-22T21:38:48;11.30;99.90
20773;DHT22;10546;50.674;4.616;2022-12-22T21:41:15;11.30;99.90
20773;DHT22;10546;50.674;4.616;2022-12-22T21:43:40;11.30;99.90
20773;DHT22;10546;50.674;4.616;2022-12-22T21:46:10;11.30;99.90
20773;DHT22;10546;50.674;4.616;2022-12-22T21:48:36;11.30;99.90
20773;DHT22;10546;50.674;4.616;2022-12-22T21:51:01;11.30;99.90
20773;DHT22;10546;50.674;4.616;2022-12-22T21:53:27;11.30;99.90
20773;DHT22;10546;50.674;4.616;2022-12-22T21:55:53;11.30;99.90
20773;DHT22;10546;50.674;4.616;2022-12-22T21:58:19;11.30;99.90
20773;DHT22;10546;50.674;4.616;2022-12-22T22:00:47;11.40;99.90
20773;DHT22;10546;50.674;4.616;2022-12-22T22:03:14;11.30;99.90
20773;DHT22;10546;50.674;4.616;2022-12-22T22:05:40;11.30;99.90
20773;DHT22;10546;50.674;4.616;2022-12-22T22:08:09;11.20;99.90
20773;DHT22;10546;50.674;4.616;2022-12-22T22:10:37;11.40;99.90
20773;DHT22;10546;50.674;4.616;2022-12-22T22:13:04;11.30;99.90
20773;DHT22;10546;50.674;4.616;2022-12-22T22:15:30;11.30;99.90
20773;DHT22;10546;50.674;4.616;2022-12-22T22:17:56;11.30;99.90
20773;DHT22;10546;50.674;4.616;2022-12-22T22:20:28;11.30;99.90